Time;durP1;ratioP1;P1;durP2;ratioP2;P2;SDS_P1;SDS_P2;PMS_P1;PMS_P2;Temp;Humidity;BMP_temperature;BMP_pressure;BME280_temperature;BME280_humidity;BME280_pressure;Samples;Min_cycle;Max_cycle;Signal;HPM_P1;HPM_P2
2022/06/23 00:00:58;;;;;;;4.93;1.37;;;;;;;-143.84;43.59;45020.50;5050500;28;20430;-74
2022/06/23 00:03:28;;;;;;;2.03;1.70;;;;;;;-143.84;43.48;45028.13;5050443;28;20562;-75
2022/06/23 00:06:00;;;;;;;1.97;1.70;;;;;;;-143.84;42.96;45018.59;5050666;28;20481;-74
2022/06/23 00:08:28;;;;;;;3.00;1.50;;;;;;;-143.84;42.59;45037.66;5050244;28;21254;-74
2022/06/23 00:10:58;;;;;;;6.60;1.53;;;;;;;-143.84;42.17;45035.75;5050035;28;20446;-74
2022/06/23 00:13:33;;;;;;;3.50;1.60;;;;;;;-143.84;41.90;45009.09;5050302;28;20438;-74
2022/06/23 00:16:02;;;;;;;1.30;1.20;;;;;;;-143.84;41.66;45016.69;5050225;28;20485;-75
2022/06/23 00:18:35;;;;;;;10.27;1.40;;;;;;;-143.84;41.63;45012.88;5049983;28;20438;-75
2022/06/23 00:21:05;;;;;;;8.70;1.67;;;;;;;-143.84;42.04;45010.97;5050390;28;20442;-75
2022/06/23 00:23:36;;;;;;;3.73;1.70;;;;;;;-143.84;42.34;45037.66;5049988;28;20481;-74
2022/06/23 00:26:08;;;;;;;4.10;1.57;;;;;;;-143.84;41.41;45033.84;5050137;28;20430;-74
2022/06/23 00:28:45;;;;;;;6.60;1.67;;;;;;;-143.84;41.77;45007.19;5050185;28;20438;-74
2022/06/23 00:31:26;;;;;;;4.17;1.27;;;;;;;-143.84;41.35;45010.97;5049886;28;20479;-74
2022/06/23 00:33:54;;;;;;;3.47;1.73;;;;;;;-143.84;41.46;45012.88;5049743;28;20445;-74
2022/06/23 00:36:30;;;;;;;6.77;1.47;;;;;;;-143.84;41.14;45026.22;5050031;28;20433;-74
2022/06/23 00:38:58;;;;;;;5.80;1.80;;;;;;;-143.84;41.27;45030.03;5050130;28;20653;-74
2022/06/23 00:41:31;;;;;;;2.47;1.47;;;;;;;-143.84;41.11;45031.94;5050151;28;20442;-74
2022/06/23 00:44:05;;;;;;;9.10;1.57;;;;;;;-143.84;41.23;45010.97;5048689;28;20488;-74
2022/06/23 00:46:38;;;;;;;4.63;1.60;;;;;;;-143.84;41.16;45022.41;5049483;28;20445;-75
2022/06/23 00:49:14;;;;;;;1.83;1.70;;;;;;;-143.84;40.85;45028.13;5049744;28;20429;-74
2022/06/23 00:51:46;;;;;;;2.80;1.70;;;;;;;-143.84;40.81;45028.13;5049495;28;20449;-75
2022/06/23 00:54:20;;;;;;;3.87;1.53;;;;;;;-143.84;41.31;45020.50;5049654;28;20510;-74
2022/06/23 00:56:55;;;;;;;4.63;1.67;;;;;;;-143.84;41.17;44991.94;5049593;28;20441;-74
2022/06/23 00:59:28;;;;;;;6.40;1.90;;;;;;;-143.84;41.28;45030.03;5049617;28;20445;-75
2022/06/23 01:02:00;;;;;;;3.07;1.70;;;;;;;-143.84;40.69;45026.22;5049430;28;20466;-74
2022/06/23 01:04:36;;;;;;;8.63;1.63;;;;;;;-143.84;40.69;45010.97;5049711;28;20434;-74
2022/06/23 01:07:08;;;;;;;5.23;1.40;;;;;;;-143.84;40.75;45010.97;5049249;28;20491;-74
2022/06/23 01:09:40;;;;;;;8.13;1.73;;;;;;;-143.84;40.69;45022.41;5048591;28;20943;-74
2022/06/23 01:12:23;;;;;;;2.60;1.67;;;;;;;-143.84;40.77;45010.97;5048461;28;20472;-75
2022/06/23 01:14:59;;;;;;;3.07;1.80;;;;;;;-143.84;40.67;45026.22;5048200;28;20496;-74
2022/06/23 01:17:30;;;;;;;2.40;1.43;;;;;;;-143.84;41.17;45014.78;5048652;28;20491;-74
2022/06/23 01:20:17;;;;;;;4.67;1.63;;;;;;;-143.84;41.11;45022.41;5048654;28;20445;-74
2022/06/23 01:23:01;;;;;;;2.13;1.63;;;;;;;-143.84;40.92;45035.75;5048923;28;20966;-74
2022/06/23 01:25:41;;;;;;;5.57;2.00;;;;;;;-143.84;41.04;45020.50;5049025;28;20793;-75
2022/06/23 01:28:15;;;;;;;1.83;1.73;;;;;;;-143.84;41.11;45020.50;5048849;28;20887;-74
2022/06/23 01:30:50;;;;;;;4.30;2.23;;;;;;;-143.84;41.01;44999.56;5048835;28;20445;-74
2022/06/23 01:33:23;;;;;;;6.60;1.80;;;;;;;-143.84;41.08;45012.88;5048971;28;20499;-74
2022/06/23 01:35:59;;;;;;;5.17;1.63;;;;;;;-143.84;41.14;45035.75;5048760;28;20464;-74
2022/06/23 01:38:35;;;;;;;9.37;2.13;;;;;;;-143.84;41.20;44999.56;5048625;28;20448;-74
2022/06/23 01:41:13;;;;;;;6.30;1.77;;;;;;;-143.84;41.25;45030.03;5048782;28;20441;-74
2022/06/23 01:43:48;;;;;;;5.33;1.97;;;;;;;-143.84;40.98;45028.13;5048546;28;20481;-74
2022/06/23 01:46:20;;;;;;;3.00;1.30;;;;;;;-143.84;41.20;45030.03;5048995;28;20515;-80
2022/06/23 01:48:54;;;;;;;4.57;1.93;;;;;;;-143.84;41.22;45009.09;5051304;28;20437;-81
2022/06/23 01:51:25;;;;;;;7.57;1.60;;;;;;;-143.84;41.31;45012.88;5051182;28;20857;-81
2022/06/23 01:53:54;;;;;;;1.50;1.40;;;;;;;-143.84;41.16;45033.84;5051935;28;20433;-80
2022/06/23 01:56:36;;;;;;;5.03;2.20;;;;;;;-143.84;41.28;45018.59;5055289;28;20441;-80
2022/06/23 01:59:33;;;;;;;2.90;1.90;;;;;;;-143.84;41.31;45030.03;5055229;28;20454;-80
2022/06/23 02:02:19;;;;;;;2.13;1.70;;;;;;;-143.84;41.73;45037.66;5041527;28;20442;-80
2022/06/23 02:04:54;;;;;;;3.93;1.97;;;;;;;-143.84;41.80;45033.84;5055238;28;20924;-81
2022/06/23 02:07:29;;;;;;;8.10;1.80;;;;;;;-143.84;42.08;45056.69;5054988;28;20433;-80
2022/06/23 02:10:04;;;;;;;3.23;1.70;;;;;;;-143.84;42.11;45014.78;5054754;28;20441;-80
2022/06/23 02:12:36;;;;;;;2.20;1.70;;;;;;;-143.84;42.12;45020.50;5055001;28;20524;-80
2022/06/23 02:15:14;;;;;;;3.80;1.47;;;;;;;-143.84;42.39;45026.22;5054741;28;20487;-80
2022/06/23 02:17:47;;;;;;;9.60;2.07;;;;;;;-143.84;42.48;45020.50;5054460;28;20461;-81
2022/06/23 02:20:26;;;;;;;2.80;1.70;;;;;;;-143.84;42.41;45018.59;5054529;28;20445;-75
2022/06/23 02:23:06;;;;;;;4.83;1.83;;;;;;;-143.84;42.41;45016.69;5052357;28;20480;-74
2022/06/23 02:25:37;;;;;;;8.47;1.43;;;;;;;-143.84;42.55;45047.16;5052454;28;21032;-74
2022/06/23 02:28:14;;;;;;;11.63;1.60;;;;;;;-143.84;42.48;45028.13;5052354;28;20441;-74
2022/06/23 02:30:47;;;;;;;5.30;1.87;;;;;;;-143.84;42.68;45037.66;5052146;28;20923;-74
2022/06/23 02:33:22;;;;;;;1.40;1.30;;;;;;;-143.84;42.79;45009.09;5052213;28;20850;-74
2022/06/23 02:35:57;;;;;;;6.53;2.10;;;;;;;-143.84;43.08;45024.31;5052381;28;20448;-74
2022/06/23 02:38:27;;;;;;;1.60;1.50;;;;;;;-143.84;43.36;45009.09;5052142;28;20437;-75
2022/06/23 02:40:58;;;;;;;11.30;2.07;;;;;;;-143.84;43.43;45022.41;5052003;28;20450;-74
2022/06/23 02:43:31;;;;;;;5.23;1.63;;;;;;;-143.84;43.34;45033.84;5051759;28;21018;-74
2022/06/23 02:46:32;;;;;;;1.90;1.63;;;;;;;-143.84;43.24;44999.56;5051964;28;20441;-74
2022/06/23 02:49:30;;;;;;;16.10;2.03;;;;;;;-143.84;43.39;45030.03;5051883;28;20460;-74
2022/06/23 02:52:34;;;;;;;2.23;1.80;;;;;;;-143.84;43.56;45041.44;5052299;28;20519;-75
2022/06/23 02:55:23;;;;;;;2.03;1.70;;;;;;;-143.84;43.54;45045.25;5068033;28;20464;-75
2022/06/23 02:57:58;;;;;;;7.83;1.80;;;;;;;-143.84;44.32;45043.34;5072840;28;20457;-75
2022/06/23 03:00:33;;;;;;;3.00;1.33;;;;;;;-143.84;43.72;45037.66;5073823;28;20795;-77
2022/06/23 03:03:08;;;;;;;13.73;1.97;;;;;;;-143.84;43.66;45024.31;5073524;28;20483;-77
2022/06/23 03:05:47;;;;;;;4.10;1.43;;;;;;;-143.84;42.79;45010.97;5073092;28;20497;-78
2022/06/23 03:08:28;;;;;;;3.57;1.57;;;;;;;-143.84;43.36;45009.09;5073791;28;20955;-79
2022/06/23 03:11:00;;;;;;;3.73;1.23;;;;;;;-143.84;42.40;45018.59;5073737;28;20456;-79
2022/06/23 03:13:40;;;;;;;8.07;1.63;;;;;;;-143.84;42.08;45016.69;5073663;28;20468;-76
2022/06/23 03:16:13;;;;;;;8.37;1.77;;;;;;;-143.84;41.59;45009.09;5072942;28;20484;-76
2022/06/23 03:18:50;;;;;;;1.97;1.50;;;;;;;-143.84;41.64;45007.19;5073375;28;20911;-78
2022/06/23 03:21:23;;;;;;;9.50;1.67;;;;;;;-143.84;41.12;44999.56;5073159;28;20432;-78
2022/06/23 03:23:57;;;;;;;9.30;1.00;;;;;;;-143.84;41.40;45030.03;5073232;28;20499;-79
2022/06/23 03:26:39;;;;;;;7.33;1.60;;;;;;;-143.84;40.92;45031.94;5072028;28;20447;-76
2022/06/23 03:29:15;;;;;;;2.60;1.50;;;;;;;-143.84;41.06;45010.97;5071991;28;20448;-76
2022/06/23 03:31:45;;;;;;;1.47;1.37;;;;;;;-143.84;40.93;45018.59;5071933;28;20433;-77
2022/06/23 03:34:21;;;;;;;2.47;1.53;;;;;;;-143.84;40.56;45010.97;5072044;28;20914;-77
2022/06/23 03:36:55;;;;;;;5.97;1.63;;;;;;;-143.84;40.51;45005.28;5072170;28;20874;-77
2022/06/23 03:42:23;;;;;;;3.20;1.20;;;;;;;-143.84;37.82;44978.63;5071342;28;20428;-77
2022/06/23 03:44:56;;;;;;;1.40;1.10;;;;;;;-143.84;36.10;44991.94;5070722;28;20991;-77
2022/06/23 03:47:29;;;;;;;4.90;1.40;;;;;;;-143.84;35.58;45012.88;5071274;28;20954;-76
2022/06/23 03:50:00;;;;;;;8.40;1.63;;;;;;;-143.84;34.79;44946.25;5071669;28;20444;-77
2022/06/23 03:52:42;;;;;;;1.23;1.13;;;;;;;-143.84;33.77;44972.91;5071650;28;20425;-77
2022/06/23 03:55:19;;;;;;;1.80;0.90;;;;;;;-143.84;33.53;44961.47;5070675;28;20452;-76
2022/06/23 03:57:53;;;;;;;3.17;1.23;;;;;;;-143.84;32.61;44967.19;5069576;28;20451;-74
2022/06/23 04:00:27;;;;;;;1.70;1.20;;;;;;;-143.84;32.60;44965.28;5050765;28;20450;-75
2022/06/23 04:03:06;;;;;;;1.43;1.03;;;;;;;-143.84;32.16;44950.06;5050330;28;20441;-76
2022/06/23 04:06:02;;;;;;;4.90;1.40;;;;;;;-143.84;32.16;44944.34;5050455;28;20523;-76
2022/06/23 04:08:33;;;;;;;3.87;1.10;;;;;;;-143.84;31.49;44944.34;5050275;28;20445;-76
2022/06/23 04:11:43;;;;;;;4.93;2.00;;;;;;;-143.84;31.38;44940.53;5050469;28;21021;-76
2022/06/23 04:13:56;;;;;;;2.17;1.10;;;;;;;-143.84;31.43;44919.59;5049993;28;20444;-76
2022/06/23 04:16:26;;;;;;;1.53;1.30;;;;;;;-143.84;31.58;44950.06;5050251;28;20454;-76
2022/06/23 04:18:54;;;;;;;7.03;1.30;;;;;;;-143.84;31.13;44910.06;5049046;28;20511;-76
2022/06/23 04:21:26;;;;;;;4.07;1.30;;;;;;;-143.84;31.09;44915.78;5050708;28;20441;-85
2022/06/23 04:24:00;;;;;;;2.83;1.03;;;;;;;-143.84;31.12;44931.00;5052327;28;20477;-86
2022/06/23 04:26:33;;;;;;;8.40;1.67;;;;;;;-143.84;31.41;44902.44;5034895;28;20453;-86
2022/06/23 04:29:09;;;;;;;3.90;1.53;;;;;;;-143.84;31.05;44932.91;5051415;28;20791;-77
2022/06/23 04:31:41;;;;;;;9.53;1.50;;;;;;;-143.84;31.49;44940.53;5049803;28;20441;-76
2022/06/23 04:34:20;;;;;;;5.67;1.80;;;;;;;-143.84;31.41;44911.97;5049507;28;21027;-77
2022/06/23 04:36:47;;;;;;;11.33;2.13;;;;;;;-143.84;31.12;44904.34;5050072;28;20963;-77
2022/06/23 04:39:26;;;;;;;15.23;1.60;;;;;;;-143.84;31.18;44877.69;5049723;28;20437;-77
2022/06/23 04:42:00;;;;;;;3.37;1.23;;;;;;;-143.84;30.75;44877.69;5049777;28;20943;-77
2022/06/23 04:44:31;;;;;;;13.33;1.60;;;;;;;-143.84;31.21;44910.06;5049517;28;21071;-76
2022/06/23 04:47:01;;;;;;;8.00;1.30;;;;;;;-143.84;30.15;44871.97;5049829;28;20444;-77
2022/06/23 04:49:37;;;;;;;10.67;1.50;;;;;;;-143.84;30.35;44894.84;5049469;28;20449;-76
2022/06/23 04:52:13;;;;;;;2.50;1.10;;;;;;;-143.84;30.35;44866.28;5049520;28;21320;-77
2022/06/23 04:54:49;;;;;;;4.00;1.10;;;;;;;-143.84;30.01;44870.09;5049716;28;20498;-77
2022/06/23 04:57:22;;;;;;;9.57;1.50;;;;;;;-143.84;30.33;44892.94;5049743;28;20549;-77
2022/06/23 04:59:51;;;;;;;9.37;1.40;;;;;;;-143.84;30.21;44860.56;5049732;28;20449;-77
2022/06/23 05:02:28;;;;;;;6.63;1.23;;;;;;;-143.84;30.35;44862.47;5069243;28;20527;-77
2022/06/23 05:05:01;;;;;;;5.40;1.30;;;;;;;-143.84;30.01;44877.69;5069158;28;20472;-77
2022/06/23 05:07:34;;;;;;;1.77;0.97;;;;;;;-143.84;29.60;44864.38;5069574;28;20980;-77
2022/06/23 05:10:07;;;;;;;9.73;1.37;;;;;;;-143.84;30.09;44881.50;5069490;28;20498;-77
2022/06/23 05:12:38;;;;;;;1.73;1.00;;;;;;;-143.84;30.25;44879.59;5069377;28;20916;-77
2022/06/23 05:15:16;;;;;;;1.87;1.00;;;;;;;-143.84;30.25;44866.28;5069380;28;20997;-77
2022/06/23 05:17:50;;;;;;;5.00;1.63;;;;;;;-143.84;29.96;44858.66;5069082;28;20476;-77
2022/06/23 05:20:25;;;;;;;4.10;1.43;;;;;;;-143.84;30.04;44871.97;5068916;28;20441;-77
2022/06/23 05:22:52;;;;;;;3.00;1.20;;;;;;;-143.84;30.00;44860.56;5069315;28;20846;-77
2022/06/23 05:25:43;;;;;;;3.13;1.50;;;;;;;-143.84;29.56;44885.31;5068760;28;20852;-77
2022/06/23 05:28:18;;;;;;;3.43;1.30;;;;;;;-143.84;29.36;44864.38;5068813;28;20490;-77
2022/06/23 05:30:52;;;;;;;7.70;1.10;;;;;;;-143.84;29.42;44845.31;5068516;28;20447;-77
2022/06/23 05:33:22;;;;;;;4.67;1.57;;;;;;;-143.84;29.36;44851.03;5068203;28;20506;-77
2022/06/23 05:35:53;;;;;;;5.27;1.00;;;;;;;-143.84;29.75;44843.44;5067810;28;20445;-77
2022/06/23 05:38:34;;;;;;;3.10;0.90;;;;;;;-143.84;28.57;44835.81;5068667;28;21036;-77
2022/06/23 05:41:08;;;;;;;2.20;1.17;;;;;;;-143.84;28.81;44849.13;5068261;28;20444;-77
2022/06/23 05:43:41;;;;;;;2.33;1.23;;;;;;;-143.84;29.04;44818.66;5068222;28;20938;-77
2022/06/23 05:46:18;;;;;;;2.50;1.60;;;;;;;-143.84;29.01;44851.03;5069042;28;20437;-77
2022/06/23 05:48:57;;;;;;;2.83;1.30;;;;;;;-143.84;29.15;44841.53;5069507;28;20443;-77
2022/06/23 05:51:32;;;;;;;9.10;1.37;;;;;;;-143.84;28.92;44835.81;5068694;28;20444;-77
2022/06/23 05:54:04;;;;;;;3.33;1.10;;;;;;;-143.84;28.90;44849.13;5068743;28;20445;-77
2022/06/23 05:56:39;;;;;;;5.03;1.13;;;;;;;-143.84;28.76;44852.94;5068679;28;20518;-77
2022/06/23 05:59:14;;;;;;;7.97;1.60;;;;;;;-143.84;28.10;44830.09;5068428;28;20498;-77
2022/06/23 06:01:48;;;;;;;1.60;1.10;;;;;;;-143.84;27.71;44851.03;5068668;28;20451;-77
2022/06/23 06:04:19;;;;;;;5.33;1.20;;;;;;;-143.84;27.81;44833.91;5068678;28;20546;-77
2022/06/23 06:06:47;;;;;;;1.93;1.10;;;;;;;-143.84;27.96;44822.47;5068644;28;20445;-77
2022/06/23 06:09:40;;;;;;;2.43;1.00;;;;;;;-143.84;27.66;44845.31;5069108;28;20499;-77
2022/06/23 06:12:14;;;;;;;1.90;1.07;;;;;;;-143.84;28.14;44811.06;5068813;28;20445;-77
2022/06/23 06:14:44;;;;;;;3.17;1.10;;;;;;;-143.84;27.35;44845.31;5068517;28;20504;-77
2022/06/23 06:17:19;;;;;;;2.40;1.10;;;;;;;-143.84;27.73;44847.22;5068583;28;20954;-78
2022/06/23 06:19:47;;;;;;;1.33;1.00;;;;;;;-143.84;28.33;44828.19;5068661;28;20440;-77
2022/06/23 06:22:30;;;;;;;2.13;1.00;;;;;;;-143.84;27.96;44790.13;5068592;28;20889;-78
2022/06/23 06:24:59;;;;;;;10.97;1.00;;;;;;;-143.84;27.88;44832.00;5068578;28;20479;-78
2022/06/23 06:27:28;;;;;;;5.73;1.10;;;;;;;-143.84;27.94;44790.13;5068505;28;20453;-77
2022/06/23 06:29:56;;;;;;;3.47;1.10;;;;;;;-143.84;26.91;44801.53;5068435;28;20445;-78
2022/06/23 06:32:30;;;;;;;3.17;1.10;;;;;;;-143.84;27.74;44824.38;5068316;28;20499;-78
2022/06/23 06:35:06;;;;;;;1.63;1.10;;;;;;;-143.84;27.58;44833.91;5068372;28;20444;-78
2022/06/23 06:37:37;;;;;;;3.47;1.43;;;;;;;-143.84;27.27;44824.38;5068271;28;20451;-78
2022/06/23 06:40:05;;;;;;;1.93;0.80;;;;;;;-143.84;27.40;44792.00;5068217;28;20455;-77
2022/06/23 06:42:40;;;;;;;2.17;1.10;;;;;;;-143.84;26.91;44814.88;5071185;28;20453;-78
2022/06/23 06:45:10;;;;;;;1.93;1.03;;;;;;;-143.84;27.53;44828.19;5072091;28;20536;-78
2022/06/23 06:47:40;;;;;;;5.97;1.30;;;;;;;-143.84;27.11;44847.22;5071795;28;20497;-78
2022/06/23 06:50:25;;;;;;;5.67;1.30;;;;;;;-143.84;26.91;44832.00;5071829;28;20505;-78
2022/06/23 06:52:53;;;;;;;2.87;1.10;;;;;;;-143.84;27.25;44822.47;5071627;28;20436;-78
2022/06/23 06:55:25;;;;;;;4.43;1.20;;;;;;;-143.84;27.65;44851.03;5071776;28;20441;-78
2022/06/23 06:57:58;;;;;;;2.30;1.03;;;;;;;-143.84;28.41;44820.56;5071943;28;20451;-78
2022/06/23 07:00:29;;;;;;;3.00;1.20;;;;;;;-143.84;26.91;44812.97;5071945;28;20453;-78
2022/06/23 07:03:01;;;;;;;1.67;1.10;;;;;;;-143.84;26.73;44833.91;5063727;28;20441;-78
2022/06/23 07:05:33;;;;;;;1.60;1.20;;;;;;;-143.84;28.10;44778.69;5071824;28;21337;-78
2022/06/23 07:08:06;;;;;;;6.20;1.10;;;;;;;-143.84;27.45;44801.53;5071809;28;20445;-78
2022/06/23 07:10:41;;;;;;;1.90;1.10;;;;;;;-143.84;27.71;44839.63;5071665;28;20437;-78
2022/06/23 07:13:14;;;;;;;5.33;1.20;;;;;;;-143.84;27.72;44839.63;5071699;28;20490;-78
2022/06/23 07:15:46;;;;;;;5.10;1.33;;;;;;;-143.84;28.52;44830.09;5071502;28;20473;-78
2022/06/23 07:18:21;;;;;;;3.27;1.80;;;;;;;-143.84;27.84;44782.50;5071540;28;20445;-78
2022/06/23 07:20:58;;;;;;;1.43;1.20;;;;;;;-143.84;27.18;44795.81;5071741;28;20467;-78
2022/06/23 07:23:31;;;;;;;6.20;1.20;;;;;;;-143.84;27.78;44795.81;5053245;28;20548;-78
2022/06/23 07:26:06;;;;;;;6.30;1.63;;;;;;;-143.84;28.13;44805.34;5071125;28;20924;-78
2022/06/23 07:28:41;;;;;;;2.43;1.37;;;;;;;-143.84;28.47;44811.06;5071052;28;20437;-78
2022/06/23 07:31:13;;;;;;;3.10;1.53;;;;;;;-143.84;27.66;44807.25;5070945;28;20510;-78
2022/06/23 07:33:45;;;;;;;1.43;1.33;;;;;;;-143.84;28.22;44824.38;5071335;28;20502;-78
2022/06/23 07:36:17;;;;;;;2.00;1.33;;;;;;;-143.84;28.82;44790.13;5071136;28;20444;-78
2022/06/23 07:38:49;;;;;;;6.33;1.70;;;;;;;-143.84;28.45;44809.16;5070950;28;20440;-78
2022/06/23 07:41:22;;;;;;;3.67;1.30;;;;;;;-143.84;28.73;44860.56;5071210;28;20506;-77
2022/06/23 07:43:59;;;;;;;4.50;1.30;;;;;;;-143.84;28.95;44805.34;5070966;28;20467;-78
2022/06/23 07:46:26;;;;;;;1.80;1.20;;;;;;;-143.84;29.01;44830.09;5070951;28;20989;-77
2022/06/23 07:48:53;;;;;;;3.33;1.10;;;;;;;-143.84;29.46;44866.28;5071032;28;21035;-78
2022/06/23 07:51:21;;;;;;;2.20;1.33;;;;;;;-143.84;29.37;44826.28;5070753;28;20793;-77
2022/06/23 07:53:53;;;;;;;1.43;1.33;;;;;;;-143.84;29.57;44877.69;5070375;28;20448;-77
2022/06/23 07:56:23;;;;;;;1.63;1.30;;;;;;;-143.84;29.73;44852.94;5070634;28;20514;-77
2022/06/23 07:58:55;;;;;;;4.47;1.93;;;;;;;-143.84;30.54;44877.69;5070822;28;20857;-77
2022/06/23 08:01:28;;;;;;;14.37;1.70;;;;;;;-143.84;31.43;44894.84;5070804;28;20976;-77
2022/06/23 08:04:03;;;;;;;3.33;1.20;;;;;;;-143.84;29.33;44891.03;5070609;28;20445;-77
2022/06/23 08:06:31;;;;;;;5.80;1.57;;;;;;;-143.84;29.36;44887.22;5070380;28;20479;-77
2022/06/23 08:09:02;;;;;;;2.03;1.20;;;;;;;-143.84;30.05;44868.19;5070516;28;20440;-77
2022/06/23 08:14:23;;;;;;;3.13;1.53;;;;;;;-143.84;31.17;44889.13;5064950;28;20440;-77
2022/06/23 08:16:49;;;;;;;8.23;1.93;;;;;;;-143.84;31.21;44870.09;5070478;28;20456;-75
2022/06/23 08:19:28;;;;;;;5.07;1.50;;;;;;;-143.84;31.04;44896.75;5070129;28;20513;-75
2022/06/23 08:22:02;;;;;;;5.33;1.67;;;;;;;-143.84;32.03;44913.88;5069884;28;20453;-75
2022/06/23 08:24:32;;;;;;;7.73;1.47;;;;;;;-143.84;31.55;44910.06;5069994;28;20436;-75
2022/06/23 08:27:02;;;;;;;8.40;1.40;;;;;;;-143.84;33.20;44873.88;5062155;28;20437;-75
2022/06/23 08:29:35;;;;;;;1.60;1.40;;;;;;;-143.84;31.87;44900.53;5069799;28;20436;-75
2022/06/23 08:32:02;;;;;;;6.57;1.30;;;;;;;-143.84;31.80;44919.59;5069692;28;20475;-75
2022/06/23 08:34:33;;;;;;;1.50;1.20;;;;;;;-143.84;32.83;44885.31;5069783;28;20471;-75
2022/06/23 08:37:05;;;;;;;2.60;1.40;;;;;;;-143.84;32.86;44900.53;5069752;28;20433;-75
2022/06/23 08:39:39;;;;;;;3.30;1.40;;;;;;;-143.84;33.10;44908.16;5069529;28;20495;-75
2022/06/23 08:42:13;;;;;;;5.20;1.90;;;;;;;-143.84;33.88;44892.94;5069755;28;20441;-75
2022/06/23 08:44:49;;;;;;;4.27;1.17;;;;;;;-143.84;33.83;44908.16;5069486;28;20484;-75
2022/06/23 08:47:23;;;;;;;6.03;1.67;;;;;;;-143.84;33.85;44910.06;5069497;28;20441;-75
2022/06/23 08:49:56;;;;;;;1.93;1.23;;;;;;;-143.84;33.14;44900.53;5069574;28;20441;-75
2022/06/23 08:52:31;;;;;;;10.50;1.47;;;;;;;-143.84;32.29;44908.16;5069219;28;20456;-75
2022/06/23 08:55:05;;;;;;;4.40;1.00;;;;;;;-143.84;34.14;44902.44;5069324;28;20863;-75
2022/06/23 08:57:37;;;;;;;8.47;1.37;;;;;;;-143.84;32.83;44923.41;5069409;28;20436;-75
2022/06/23 09:00:11;;;;;;;3.53;1.37;;;;;;;-143.84;33.68;44902.44;5051186;28;20883;-75
2022/06/23 09:02:48;;;;;;;3.80;1.43;;;;;;;-143.84;34.77;44923.41;5049283;28;21045;-75
2022/06/23 09:05:21;;;;;;;2.90;1.50;;;;;;;-143.84;34.79;44923.41;5048589;28;20485;-75
2022/06/23 09:07:56;;;;;;;12.03;1.70;;;;;;;-143.84;33.78;44927.19;5049080;28;20433;-75
2022/06/23 09:10:34;;;;;;;3.07;1.70;;;;;;;-143.84;35.67;44917.69;5049123;28;20444;-75
2022/06/23 09:13:11;;;;;;;8.70;1.50;;;;;;;-143.84;34.80;44927.19;5049357;28;20433;-75
2022/06/23 09:16:11;;;;;;;8.50;1.53;;;;;;;-143.84;35.45;44902.44;5048932;28;20508;-75
2022/06/23 09:19:22;;;;;;;10.27;2.33;;;;;;;-143.84;34.82;44915.78;5049027;28;20449;-75
2022/06/23 09:22:18;;;;;;;2.70;1.47;;;;;;;-143.84;34.01;44902.44;5049100;28;20476;-76
2022/06/23 09:25:04;;;;;;;4.13;1.27;;;;;;;-143.84;33.94;44931.00;5048954;28;20437;-75
2022/06/23 09:27:59;;;;;;;5.20;1.73;;;;;;;-143.84;34.50;44921.50;5048859;28;20453;-75
2022/06/23 09:30:36;;;;;;;4.47;1.33;;;;;;;-143.84;33.75;44934.81;5049013;28;20442;-74
2022/06/23 09:33:22;;;;;;;6.23;1.60;;;;;;;-143.84;35.30;44908.16;5049119;28;20437;-75
2022/06/23 09:36:22;;;;;;;4.27;1.60;;;;;;;-143.84;35.44;44896.75;5048482;28;20533;-75
2022/06/23 09:39:23;;;;;;;6.93;1.40;;;;;;;-143.84;36.10;44908.16;5049002;28;20449;-76
2022/06/23 09:42:13;;;;;;;1.43;1.33;;;;;;;-143.84;34.96;44925.31;5032436;28;20989;-74
2022/06/23 09:44:54;;;;;;;1.83;1.10;;;;;;;-143.84;34.71;44906.25;5047016;28;20503;-74
2022/06/23 09:47:50;;;;;;;8.63;1.37;;;;;;;-143.84;35.82;44919.59;5047355;28;20504;-74
2022/06/23 09:50:56;;;;;;;3.70;2.00;;;;;;;-143.84;35.56;44915.78;5046665;28;20449;-74
2022/06/23 09:53:55;;;;;;;5.47;1.70;;;;;;;-143.84;35.56;44913.88;4971769;28;20575;-74
2022/06/23 09:57:07;;;;;;;2.83;1.10;;;;;;;-143.84;35.92;44910.06;5011932;28;20453;-74
2022/06/23 09:59:56;;;;;;;4.30;1.40;;;;;;;-143.84;36.90;44894.84;5046995;28;20454;-74
2022/06/23 10:02:36;;;;;;;2.07;1.50;;;;;;;-143.84;35.51;44927.19;5046349;28;20511;-74
2022/06/23 10:05:15;;;;;;;3.17;1.50;;;;;;;-143.84;35.71;44931.00;5045411;28;20449;-74
2022/06/23 10:08:20;;;;;;;4.10;1.40;;;;;;;-143.84;35.25;44889.13;5046007;28;20457;-74
2022/06/23 10:11:17;;;;;;;5.13;1.30;;;;;;;-143.84;33.29;44906.25;5038924;28;21015;-74
2022/06/23 10:14:01;;;;;;;3.40;1.40;;;;;;;-143.84;34.94;44919.59;4972590;28;20453;-74
2022/06/23 10:16:42;;;;;;;3.33;1.80;;;;;;;-143.84;35.76;44950.06;5048987;28;20450;-74
2022/06/23 10:19:23;;;;;;;4.13;1.10;;;;;;;-143.84;35.68;44927.19;5050788;28;20452;-73
2022/06/23 10:22:06;;;;;;;1.50;1.10;;;;;;;-143.84;35.21;44908.16;5048111;28;20453;-74
2022/06/23 10:24:53;;;;;;;2.40;1.70;;;;;;;-143.84;34.99;44915.78;5046791;28;20468;-74
2022/06/23 10:27:38;;;;;;;2.27;1.53;;;;;;;-143.84;35.59;44934.81;5047548;28;20465;-74
2022/06/23 10:30:16;;;;;;;5.53;1.33;;;;;;;-143.84;36.64;44894.84;5049601;28;20460;-74
2022/06/23 10:33:07;;;;;;;2.93;1.50;;;;;;;-143.84;36.73;44904.34;5050736;28;20953;-74
2022/06/23 10:35:48;;;;;;;4.50;1.70;;;;;;;-143.84;36.93;44911.97;5045197;28;20947;-74
2022/06/23 10:38:45;;;;;;;5.03;1.53;;;;;;;-143.84;37.27;44923.41;5050722;28;20453;-74
2022/06/23 10:41:39;;;;;;;3.53;2.27;;;;;;;-143.84;38.31;44902.44;5031166;28;20441;-74
2022/06/23 10:44:28;;;;;;;4.40;2.90;;;;;;;-143.84;38.44;44885.31;5048501;28;20457;-74
2022/06/23 10:47:07;;;;;;;9.17;2.50;;;;;;;-143.84;37.76;44913.88;5051083;28;20599;-74
2022/06/23 10:49:52;;;;;;;5.83;2.83;;;;;;;-143.84;38.33;44904.34;5050814;28;20451;-74
2022/06/23 10:52:47;;;;;;;1.83;1.50;;;;;;;-143.84;39.35;44951.97;5050904;28;20452;-74
2022/06/23 10:55:36;;;;;;;4.37;1.70;;;;;;;-143.84;38.86;44927.19;5049495;28;20449;-74
2022/06/23 10:58:45;;;;;;;8.40;1.77;;;;;;;-143.84;38.79;44932.91;5050898;28;20449;-74
2022/06/23 11:01:54;;;;;;;2.23;1.40;;;;;;;-143.84;38.93;44919.59;5050664;28;20532;-74
2022/06/23 11:04:51;;;;;;;7.70;1.60;;;;;;;-143.84;40.71;44908.16;5049971;28;20449;-74
2022/06/23 11:07:38;;;;;;;3.43;1.70;;;;;;;-143.84;41.23;44923.41;5045181;28;20870;-74
2022/06/23 11:10:44;;;;;;;5.23;1.50;;;;;;;-143.84;41.40;44927.19;5047865;28;20441;-74
2022/06/23 11:13:25;;;;;;;2.43;1.60;;;;;;;-143.84;40.42;44896.75;5048175;28;20457;-74
2022/06/23 11:16:02;;;;;;;2.30;1.40;;;;;;;-143.84;39.60;44921.50;5059886;28;20496;-74
2022/06/23 11:18:55;;;;;;;2.60;1.10;;;;;;;-143.84;40.91;44927.19;5070931;28;20468;-78
2022/06/23 11:21:39;;;;;;;2.37;1.57;;;;;;;-143.84;41.48;44923.41;5069438;28;20460;-73
2022/06/23 11:27:26;;;;;;;4.20;1.37;;;;;;;-143.84;40.04;44974.81;5064135;28;21007;-74
2022/06/23 11:30:20;;;;;;;3.80;1.63;;;;;;;-143.84;39.71;44942.44;5064973;28;20468;-74
2022/06/23 11:33:04;;;;;;;3.30;1.47;;;;;;;-143.84;39.72;44917.69;5070702;28;20456;-74
2022/06/23 11:36:00;;;;;;;4.50;1.20;;;;;;;-143.84;38.90;44931.00;5071009;28;20444;-75
2022/06/23 11:38:48;;;;;;;11.50;1.70;;;;;;;-143.84;39.91;44908.16;5058925;28;20469;-74
2022/06/23 11:41:31;;;;;;;1.40;1.30;;;;;;;-143.84;40.43;44929.09;5058788;28;20501;-75
2022/06/23 11:44:18;;;;;;;6.70;1.90;;;;;;;-143.84;41.31;44934.81;5065217;28;20449;-75
2022/06/23 11:46:54;;;;;;;5.17;1.47;;;;;;;-143.84;40.29;44934.81;5050833;28;20480;-75
2022/06/23 11:49:34;;;;;;;2.20;1.60;;;;;;;-143.84;40.00;44942.44;5050622;28;20512;-75
2022/06/23 11:52:16;;;;;;;4.10;1.40;;;;;;;-143.84;41.12;44927.19;5051110;28;21029;-75
2022/06/23 11:54:57;;;;;;;1.63;1.10;;;;;;;-143.84;39.21;44917.69;5050475;28;20441;-75
2022/06/23 11:57:43;;;;;;;9.83;1.60;;;;;;;-143.84;38.35;44948.16;5050677;28;20442;-75
2022/06/23 12:00:14;;;;;;;7.97;1.40;;;;;;;-143.84;38.97;44955.75;5050410;28;20495;-75
2022/06/23 12:02:54;;;;;;;5.10;1.50;;;;;;;-143.84;41.01;44950.06;5050576;28;20453;-75
2022/06/23 12:05:32;;;;;;;6.60;1.90;;;;;;;-143.84;43.91;44927.19;5050293;28;20442;-75
2022/06/23 12:08:27;;;;;;;3.87;1.77;;;;;;;-143.84;45.77;44942.44;5050355;28;20449;-74
2022/06/23 12:10:55;;;;;;;4.60;1.93;;;;;;;-143.84;45.02;44957.66;5050941;28;20445;-75
2022/06/23 12:13:26;;;;;;;5.60;1.60;;;;;;;-143.84;44.92;44955.75;5050967;28;20436;-77